sensor_id;sensor_type;location;lat;lon;timestamp;pressure;altitude;pressure_sealevel;temperature;humidity
72942;BME280;69665;55.822;37.330;2023-05-25T00:01:30;99543.63;;;16.60;58.06
72942;BME280;69665;55.822;37.330;2023-05-25T00:04:02;99556.53;;;16.67;57.66
72942;BME280;69665;55.822;37.330;2023-05-25T00:06:28;99560.06;;;16.67;60.00
72942;BME280;69665;55.822;37.330;2023-05-25T00:08:55;99550.47;;;16.65;58.21
72942;BME280;69665;55.822;37.330;2023-05-25T00:11:25;99542.13;;;16.56;58.31
72942;BME280;69665;55.822;37.330;2023-05-25T00:13:52;99540.41;;;16.55;57.81
72942;BME280;69665;55.822;37.330;2023-05-25T00:16:18;99540.41;;;16.55;57.83
72942;BME280;69665;55.822;37.330;2023-05-25T00:18:43;99525.22;;;16.43;57.74
72942;BME280;69665;55.822;37.330;2023-05-25T00:21:09;99529.97;;;16.52;57.92
72942;BME280;69665;55.822;37.330;2023-05-25T00:23:36;99515.16;;;16.48;57.89
72942;BME280;69665;55.822;37.330;2023-05-25T00:26:02;99523.22;;;16.61;57.58
72942;BME280;69665;55.822;37.330;2023-05-25T00:28:28;99530.78;;;16.67;57.64
72942;BME280;69665;55.822;37.330;2023-05-25T00:30:54;99532.03;;;16.76;57.89
72942;BME280;69665;55.822;37.330;2023-05-25T00:33:21;99523.94;;;16.77;57.57
72942;BME280;69665;55.822;37.330;2023-05-25T00:35:46;99506.00;;;16.67;57.38
72942;BME280;69665;55.822;37.330;2023-05-25T00:38:18;99528.88;;;16.83;58.00
72942;BME280;69665;55.822;37.330;2023-05-25T00:40:45;99519.69;;;16.75;57.13
72942;BME280;69665;55.822;37.330;2023-05-25T00:43:12;99535.63;;;16.75;57.64
72942;BME280;69665;55.822;37.330;2023-05-25T00:45:38;99516.28;;;16.58;57.38
72942;BME280;69665;55.822;37.330;2023-05-25T00:48:04;99531.28;;;16.59;57.41
72942;BME280;69665;55.822;37.330;2023-05-25T00:50:38;99516.66;;;16.52;58.28
72942;BME280;69665;55.822;37.330;2023-05-25T00:53:05;99506.06;;;16.38;57.51
72942;BME280;69665;55.822;37.330;2023-05-25T00:55:36;99525.97;;;16.45;58.39
72942;BME280;69665;55.822;37.330;2023-05-25T00:58:06;99514.03;;;16.38;57.80
72942;BME280;69665;55.822;37.330;2023-05-25T01:00:33;99516.50;;;16.41;57.61
72942;BME280;69665;55.822;37.330;2023-05-25T01:03:05;99503.72;;;16.34;57.81
72942;BME280;69665;55.822;37.330;2023-05-25T01:05:37;99493.47;;;16.27;58.09
72942;BME280;69665;55.822;37.330;2023-05-25T01:08:08;99494.03;;;16.33;57.81
72942;BME280;69665;55.822;37.330;2023-05-25T01:10:36;99478.09;;;16.18;57.83
72942;BME280;69665;55.822;37.330;2023-05-25T01:13:06;99478.75;;;16.22;58.11
72942;BME280;69665;55.822;37.330;2023-05-25T01:15:36;99464.47;;;16.10;58.07
72942;BME280;69665;55.822;37.330;2023-05-25T01:18:02;99477.16;;;16.19;57.98
72942;BME280;69665;55.822;37.330;2023-05-25T01:20:28;99465.31;;;16.11;58.07
72942;BME280;69665;55.822;37.330;2023-05-25T01:22:59;99464.34;;;16.12;58.27
72942;BME280;69665;55.822;37.330;2023-05-25T01:25:36;99476.19;;;16.20;59.25
72942;BME280;69665;55.822;37.330;2023-05-25T01:28:10;99467.19;;;16.23;59.10
72942;BME280;69665;55.822;37.330;2023-05-25T01:30:41;99467.94;;;16.25;58.31
72942;BME280;69665;55.822;37.330;2023-05-25T01:33:09;99455.81;;;16.21;57.47
72942;BME280;69665;55.822;37.330;2023-05-25T01:35:35;99448.78;;;16.20;56.91
72942;BME280;69665;55.822;37.330;2023-05-25T01:38:01;99467.47;;;16.33;57.42
72942;BME280;69665;55.822;37.330;2023-05-25T01:40:27;99461.38;;;16.31;58.43
72942;BME280;69665;55.822;37.330;2023-05-25T01:42:53;99460.16;;;16.36;58.04
72942;BME280;69665;55.822;37.330;2023-05-25T01:45:19;99475.38;;;16.47;58.37
72942;BME280;69665;55.822;37.330;2023-05-25T01:50:49;99470.34;;;16.56;59.16
72942;BME280;69665;55.822;37.330;2023-05-25T01:53:29;99489.09;;;16.68;59.40
72942;BME280;69665;55.822;37.330;2023-05-25T01:56:01;99484.66;;;16.68;59.23
72942;BME280;69665;55.822;37.330;2023-05-25T01:58:35;99484.16;;;16.76;58.40
72942;BME280;69665;55.822;37.330;2023-05-25T02:01:03;99480.34;;;16.80;57.85
72942;BME280;69665;55.822;37.330;2023-05-25T02:03:29;99486.00;;;16.88;57.53
72942;BME280;69665;55.822;37.330;2023-05-25T02:05:55;99482.91;;;16.94;56.91
72942;BME280;69665;55.822;37.330;2023-05-25T02:08:22;99473.22;;;16.93;56.06
72942;BME280;69665;55.822;37.330;2023-05-25T02:10:48;99483.81;;;17.07;56.72
72942;BME280;69665;55.822;37.330;2023-05-25T02:13:14;99466.16;;;17.06;56.88
72942;BME280;69665;55.822;37.330;2023-05-25T02:15:39;99493.75;;;17.30;57.05
72942;BME280;69665;55.822;37.330;2023-05-25T02:18:06;99487.16;;;17.36;56.61
72942;BME280;69665;55.822;37.330;2023-05-25T02:20:33;99479.59;;;17.43;56.96
72942;BME280;69665;55.822;37.330;2023-05-25T02:23:01;99482.81;;;17.60;56.24
72942;BME280;69665;55.822;37.330;2023-05-25T02:25:27;99480.06;;;17.75;56.47
72942;BME280;69665;55.822;37.330;2023-05-25T02:27:54;99486.66;;;17.94;56.15
72942;BME280;69665;55.822;37.330;2023-05-25T02:30:19;99482.06;;;18.09;55.99
72942;BME280;69665;55.822;37.330;2023-05-25T02:32:45;99499.28;;;18.29;55.45
72942;BME280;69665;55.822;37.330;2023-05-25T02:35:11;99500.22;;;18.41;54.74
72942;BME280;69665;55.822;37.330;2023-05-25T02:37:37;99490.50;;;18.40;54.78
72942;BME280;69665;55.822;37.330;2023-05-25T02:40:04;99506.34;;;18.54;54.74
72942;BME280;69665;55.822;37.330;2023-05-25T02:42:31;99504.66;;;18.66;54.79
72942;BME280;69665;55.822;37.330;2023-05-25T02:44:57;99510.13;;;18.99;54.66
72942;BME280;69665;55.822;37.330;2023-05-25T02:47:23;99501.50;;;19.19;54.04
72942;BME280;69665;55.822;37.330;2023-05-25T02:49:49;99512.75;;;19.47;54.05
72942;BME280;69665;55.822;37.330;2023-05-25T02:52:15;99524.00;;;19.74;53.05
72942;BME280;69665;55.822;37.330;2023-05-25T02:54:41;99530.09;;;19.87;52.89
72942;BME280;69665;55.822;37.330;2023-05-25T02:57:07;99534.00;;;19.94;52.83
72942;BME280;69665;55.822;37.330;2023-05-25T02:59:35;99534.34;;;20.01;52.58
72942;BME280;69665;55.822;37.330;2023-05-25T03:02:02;99510.06;;;19.93;52.54
72942;BME280;69665;55.822;37.330;2023-05-25T03:04:28;99535.94;;;20.15;52.79
72942;BME280;69665;55.822;37.330;2023-05-25T03:06:57;99535.94;;;20.15;52.59
72942;BME280;69665;55.822;37.330;2023-05-25T03:09:23;99530.22;;;20.19;51.79
72942;BME280;69665;55.822;37.330;2023-05-25T03:11:49;99528.16;;;20.23;52.55
72942;BME280;69665;55.822;37.330;2023-05-25T03:14:18;99542.16;;;20.38;52.25
72942;BME280;69665;55.822;37.330;2023-05-25T03:16:51;99527.44;;;20.43;51.96
72942;BME280;69665;55.822;37.330;2023-05-25T03:19:19;99529.38;;;20.52;52.33
72942;BME280;69665;55.822;37.330;2023-05-25T03:21:46;99544.69;;;20.61;51.16
72942;BME280;69665;55.822;37.330;2023-05-25T03:24:12;99558.53;;;20.66;51.31
72942;BME280;69665;55.822;37.330;2023-05-25T03:26:38;99544.78;;;20.71;51.17
72942;BME280;69665;55.822;37.330;2023-05-25T03:29:05;99562.03;;;20.89;51.06
72942;BME280;69665;55.822;37.330;2023-05-25T03:31:34;99562.69;;;21.14;50.76
72942;BME280;69665;55.822;37.330;2023-05-25T03:34:01;99549.44;;;21.44;50.66
72942;BME280;69665;55.822;37.330;2023-05-25T03:36:27;99535.66;;;21.70;50.14
72942;BME280;69665;55.822;37.330;2023-05-25T03:38:55;99550.94;;;21.99;50.10
72942;BME280;69665;55.822;37.330;2023-05-25T03:41:21;99545.34;;;22.33;49.30
72942;BME280;69665;55.822;37.330;2023-05-25T03:43:46;99550.75;;;22.92;48.96
72942;BME280;69665;55.822;37.330;2023-05-25T03:46:13;99546.53;;;23.67;47.57
72942;BME280;69665;55.822;37.330;2023-05-25T03:48:41;99537.91;;;24.57;46.64
72942;BME280;69665;55.822;37.330;2023-05-25T03:51:07;99528.66;;;25.58;45.19
72942;BME280;69665;55.822;37.330;2023-05-25T03:53:33;99538.38;;;26.46;43.55
72942;BME280;69665;55.822;37.330;2023-05-25T03:55:59;99534.97;;;26.86;43.34
72942;BME280;69665;55.822;37.330;2023-05-25T03:58:24;99536.41;;;27.15;42.77
72942;BME280;69665;55.822;37.330;2023-05-25T04:00:52;99534.41;;;27.49;42.10
72942;BME280;69665;55.822;37.330;2023-05-25T04:03:19;99526.25;;;28.06;41.37
72942;BME280;69665;55.822;37.330;2023-05-25T04:05:45;99521.50;;;28.24;40.75
72942;BME280;69665;55.822;37.330;2023-05-25T04:08:15;99516.97;;;28.00;40.59
72942;BME280;69665;55.822;37.330;2023-05-25T04:10:48;99508.00;;;27.84;40.81
72942;BME280;69665;55.822;37.330;2023-05-25T04:13:13;99505.75;;;28.28;40.46
72942;BME280;69665;55.822;37.330;2023-05-25T04:15:39;99517.88;;;29.10;40.22
72942;BME280;69665;55.822;37.330;2023-05-25T04:18:08;99526.59;;;30.48;38.84
72942;BME280;69665;55.822;37.330;2023-05-25T04:20:34;99501.69;;;31.80;37.50
72942;BME280;69665;55.822;37.330;2023-05-25T04:23:00;99515.84;;;33.27;36.28
72942;BME280;69665;55.822;37.330;2023-05-25T04:25:26;99516.94;;;33.72;35.40
72942;BME280;69665;55.822;37.330;2023-05-25T04:27:52;99505.47;;;34.54;35.06
72942;BME280;69665;55.822;37.330;2023-05-25T04:30:33;99518.66;;;35.09;34.17
72942;BME280;69665;55.822;37.330;2023-05-25T04:33:18;99515.03;;;35.53;34.17
72942;BME280;69665;55.822;37.330;2023-05-25T04:36:11;99527.22;;;35.32;34.05
72942;BME280;69665;55.822;37.330;2023-05-25T04:38:39;99515.97;;;35.40;33.93
72942;BME280;69665;55.822;37.330;2023-05-25T04:41:06;99501.38;;;35.78;33.43
72942;BME280;69665;55.822;37.330;2023-05-25T04:43:33;99511.66;;;36.25;33.09
72942;BME280;69665;55.822;37.330;2023-05-25T04:46:00;99503.81;;;36.29;32.92
72942;BME280;69665;55.822;37.330;2023-05-25T04:48:28;99501.28;;;36.64;32.31
72942;BME280;69665;55.822;37.330;2023-05-25T04:50:57;99497.94;;;37.10;32.79
72942;BME280;69665;55.822;37.330;2023-05-25T04:53:23;99496.06;;;38.22;31.42
72942;BME280;69665;55.822;37.330;2023-05-25T04:55:49;99508.31;;;39.52;30.83
72942;BME280;69665;55.822;37.330;2023-05-25T04:58:16;99497.03;;;40.64;29.47
72942;BME280;69665;55.822;37.330;2023-05-25T05:00:42;99512.44;;;41.94;29.14
72942;BME280;69665;55.822;37.330;2023-05-25T05:03:08;99519.94;;;41.62;28.83
72942;BME280;69665;55.822;37.330;2023-05-25T05:05:36;99487.06;;;40.85;29.81
72942;BME280;69665;55.822;37.330;2023-05-25T05:08:04;99505.13;;;40.71;30.39
72942;BME280;69665;55.822;37.330;2023-05-25T05:10:31;99493.19;;;40.43;30.43
72942;BME280;69665;55.822;37.330;2023-05-25T05:12:57;99511.63;;;40.21;29.96
72942;BME280;69665;55.822;37.330;2023-05-25T05:15:24;99492.97;;;40.28;29.92
72942;BME280;69665;55.822;37.330;2023-05-25T05:17:50;99494.94;;;40.11;30.48
72942;BME280;69665;55.822;37.330;2023-05-25T05:20:19;99501.72;;;39.69;29.53
72942;BME280;69665;55.822;37.330;2023-05-25T05:22:45;99508.91;;;39.09;31.36
72942;BME280;69665;55.822;37.330;2023-05-25T05:25:11;99509.78;;;38.57;31.19
72942;BME280;69665;55.822;37.330;2023-05-25T05:27:37;99501.09;;;38.02;31.93
72942;BME280;69665;55.822;37.330;2023-05-25T05:30:15;99493.44;;;36.86;32.68
72942;BME280;69665;55.822;37.330;2023-05-25T05:32:41;99492.31;;;35.70;33.56
72942;BME280;69665;55.822;37.330;2023-05-25T05:35:08;99481.50;;;34.50;35.30
72942;BME280;69665;55.822;37.330;2023-05-25T05:37:41;99471.50;;;33.18;35.34
72942;BME280;69665;55.822;37.330;2023-05-25T05:40:08;99485.88;;;32.31;36.37
72942;BME280;69665;55.822;37.330;2023-05-25T05:42:35;99487.78;;;31.26;36.67
72942;BME280;69665;55.822;37.330;2023-05-25T05:45:01;99489.22;;;30.64;37.36
72942;BME280;69665;55.822;37.330;2023-05-25T05:47:31;99495.47;;;30.50;37.68
72942;BME280;69665;55.822;37.330;2023-05-25T05:49:57;99501.75;;;30.51;37.68
72942;BME280;69665;55.822;37.330;2023-05-25T05:52:23;99500.09;;;30.06;37.62
72942;BME280;69665;55.822;37.330;2023-05-25T05:54:49;99503.34;;;29.26;37.85
72942;BME280;69665;55.822;37.330;2023-05-25T05:57:15;99486.47;;;28.07;39.01
72942;BME280;69665;55.822;37.330;2023-05-25T05:59:41;99503.78;;;27.32;40.08
72942;BME280;69665;55.822;37.330;2023-05-25T06:02:07;99502.34;;;26.80;40.55
72942;BME280;69665;55.822;37.330;2023-05-25T06:04:33;99488.34;;;26.34;41.33
72942;BME280;69665;55.822;37.330;2023-05-25T06:06:58;99496.13;;;26.37;41.58
72942;BME280;69665;55.822;37.330;2023-05-25T06:09:24;99501.78;;;26.26;41.68
72942;BME280;69665;55.822;37.330;2023-05-25T06:11:59;99512.03;;;26.40;41.50
72942;BME280;69665;55.822;37.330;2023-05-25T06:14:29;99510.34;;;26.13;41.52
72942;BME280;69665;55.822;37.330;2023-05-25T06:16:57;99509.59;;;25.77;41.67
72942;BME280;69665;55.822;37.330;2023-05-25T06:19:24;99491.22;;;25.55;42.34
72942;BME280;69665;55.822;37.330;2023-05-25T06:21:49;99491.72;;;25.76;42.01
72942;BME280;69665;55.822;37.330;2023-05-25T06:24:20;99491.03;;;25.74;42.02
72942;BME280;69665;55.822;37.330;2023-05-25T06:26:45;99502.97;;;25.46;42.20
72942;BME280;69665;55.822;37.330;2023-05-25T06:29:13;99504.75;;;25.19;42.69
72942;BME280;69665;55.822;37.330;2023-05-25T06:31:39;99502.59;;;25.05;43.02
72942;BME280;69665;55.822;37.330;2023-05-25T06:34:06;99502.88;;;24.84;42.79
72942;BME280;69665;55.822;37.330;2023-05-25T06:36:31;99506.16;;;24.60;43.13
72942;BME280;69665;55.822;37.330;2023-05-25T06:38:58;99509.97;;;24.58;43.49
72942;BME280;69665;55.822;37.330;2023-05-25T06:41:24;99504.91;;;24.27;43.56
72942;BME280;69665;55.822;37.330;2023-05-25T06:43:49;99497.31;;;24.03;43.90
72942;BME280;69665;55.822;37.330;2023-05-25T06:46:28;99497.69;;;23.81;43.79
72942;BME280;69665;55.822;37.330;2023-05-25T06:49:00;99509.34;;;23.62;44.84
72942;BME280;69665;55.822;37.330;2023-05-25T06:51:26;99488.53;;;23.55;44.75
72942;BME280;69665;55.822;37.330;2023-05-25T06:53:56;99491.94;;;23.57;45.13
72942;BME280;69665;55.822;37.330;2023-05-25T06:56:22;99486.41;;;23.58;44.36
72942;BME280;69665;55.822;37.330;2023-05-25T06:58:48;99490.63;;;23.51;44.60
72942;BME280;69665;55.822;37.330;2023-05-25T07:01:14;99512.59;;;23.56;44.76
72942;BME280;69665;55.822;37.330;2023-05-25T07:03:41;99499.13;;;23.47;45.15
72942;BME280;69665;55.822;37.330;2023-05-25T07:06:07;99514.13;;;23.68;44.92
72942;BME280;69665;55.822;37.330;2023-05-25T07:08:33;99513.97;;;23.80;44.85
72942;BME280;69665;55.822;37.330;2023-05-25T07:10:59;99510.28;;;23.81;44.73
72942;BME280;69665;55.822;37.330;2023-05-25T07:13:24;99509.72;;;23.77;44.55
72942;BME280;69665;55.822;37.330;2023-05-25T07:15:50;99491.88;;;23.76;44.60
72942;BME280;69665;55.822;37.330;2023-05-25T07:18:19;99500.19;;;23.92;44.94
72942;BME280;69665;55.822;37.330;2023-05-25T07:20:45;99500.63;;;23.88;44.25
72942;BME280;69665;55.822;37.330;2023-05-25T07:23:12;99486.53;;;23.66;43.62
72942;BME280;69665;55.822;37.330;2023-05-25T07:25:38;99502.41;;;23.60;44.19
72942;BME280;69665;55.822;37.330;2023-05-25T07:28:05;99495.91;;;23.62;44.32
72942;BME280;69665;55.822;37.330;2023-05-25T07:30:30;99480.28;;;23.66;44.96
72942;BME280;69665;55.822;37.330;2023-05-25T07:32:56;99493.72;;;23.76;44.39
72942;BME280;69665;55.822;37.330;2023-05-25T07:35:23;99493.75;;;23.66;44.51
72942;BME280;69665;55.822;37.330;2023-05-25T07:37:59;99489.69;;;23.52;45.41
72942;BME280;69665;55.822;37.330;2023-05-25T07:40:25;99474.66;;;23.40;44.81
72942;BME280;69665;55.822;37.330;2023-05-25T07:42:52;99497.59;;;23.54;44.92
72942;BME280;69665;55.822;37.330;2023-05-25T07:45:18;99492.91;;;23.46;45.34
72942;BME280;69665;55.822;37.330;2023-05-25T07:47:44;99498.56;;;23.43;44.75
72942;BME280;69665;55.822;37.330;2023-05-25T07:50:10;99491.34;;;23.44;45.21
72942;BME280;69665;55.822;37.330;2023-05-25T07:52:35;99479.91;;;23.32;44.94
72942;BME280;69665;55.822;37.330;2023-05-25T07:55:06;99491.09;;;23.27;45.09
72942;BME280;69665;55.822;37.330;2023-05-25T07:57:32;99472.31;;;23.08;45.97
72942;BME280;69665;55.822;37.330;2023-05-25T07:59:58;99494.50;;;23.10;45.04
72942;BME280;69665;55.822;37.330;2023-05-25T08:02:24;99487.16;;;23.02;45.50
72942;BME280;69665;55.822;37.330;2023-05-25T08:04:50;99503.84;;;23.06;45.82
72942;BME280;69665;55.822;37.330;2023-05-25T08:07:19;99498.31;;;23.08;46.24
72942;BME280;69665;55.822;37.330;2023-05-25T08:09:45;99503.09;;;23.14;45.97
72942;BME280;69665;55.822;37.330;2023-05-25T08:12:11;99493.91;;;23.16;45.84
72942;BME280;69665;55.822;37.330;2023-05-25T08:14:37;99497.47;;;23.36;45.96
72942;BME280;69665;55.822;37.330;2023-05-25T08:17:03;99488.81;;;23.42;44.76
72942;BME280;69665;55.822;37.330;2023-05-25T08:19:29;99493.78;;;23.37;45.42
72942;BME280;69665;55.822;37.330;2023-05-25T08:21:58;99488.56;;;23.35;44.48
72942;BME280;69665;55.822;37.330;2023-05-25T08:24:24;99493.09;;;23.06;45.19
72942;BME280;69665;55.822;37.330;2023-05-25T08:26:50;99484.25;;;22.65;44.85
72942;BME280;69665;55.822;37.330;2023-05-25T08:29:16;99496.63;;;22.47;46.09
72942;BME280;69665;55.822;37.330;2023-05-25T08:31:42;99504.50;;;22.39;46.16
72942;BME280;69665;55.822;37.330;2023-05-25T08:34:10;99501.69;;;22.31;46.12
72942;BME280;69665;55.822;37.330;2023-05-25T08:36:36;99495.75;;;22.27;47.01
72942;BME280;69665;55.822;37.330;2023-05-25T08:39:02;99512.69;;;22.28;46.29
72942;BME280;69665;55.822;37.330;2023-05-25T08:41:29;99486.09;;;22.15;46.51
72942;BME280;69665;55.822;37.330;2023-05-25T08:43:56;99486.66;;;22.19;47.09
72942;BME280;69665;55.822;37.330;2023-05-25T08:46:31;99485.16;;;22.26;48.19
72942;BME280;69665;55.822;37.330;2023-05-25T08:49:03;99501.69;;;22.31;47.55
72942;BME280;69665;55.822;37.330;2023-05-25T08:51:34;99495.22;;;22.43;47.25
72942;BME280;69665;55.822;37.330;2023-05-25T08:54:09;99499.00;;;22.41;47.10
72942;BME280;69665;55.822;37.330;2023-05-25T08:59:37;99492.13;;;22.48;48.78
72942;BME280;69665;55.822;37.330;2023-05-25T09:04:41;99488.34;;;22.69;47.35
72942;BME280;69665;55.822;37.330;2023-05-25T09:07:07;99488.13;;;22.82;47.36
72942;BME280;69665;55.822;37.330;2023-05-25T09:09:34;99494.63;;;22.89;46.63
72942;BME280;69665;55.822;37.330;2023-05-25T09:12:02;99483.03;;;22.79;45.84
72942;BME280;69665;55.822;37.330;2023-05-25T09:14:29;99488.34;;;22.69;46.90
72942;BME280;69665;55.822;37.330;2023-05-25T09:16:57;99490.63;;;22.74;47.15
72942;BME280;69665;55.822;37.330;2023-05-25T09:19:23;99488.66;;;22.76;46.96
72942;BME280;69665;55.822;37.330;2023-05-25T09:21:48;99490.81;;;22.82;46.71
72942;BME280;69665;55.822;37.330;2023-05-25T09:24:15;99486.00;;;22.86;46.80
72942;BME280;69665;55.822;37.330;2023-05-25T09:26:43;99485.72;;;22.89;46.49
72942;BME280;69665;55.822;37.330;2023-05-25T09:29:14;99474.22;;;22.77;47.93
72942;BME280;69665;55.822;37.330;2023-05-25T09:31:41;99486.88;;;22.86;46.90
72942;BME280;69665;55.822;37.330;2023-05-25T09:34:11;99470.84;;;22.75;47.90
72942;BME280;69665;55.822;37.330;2023-05-25T09:36:37;99480.78;;;22.84;47.15
72942;BME280;69665;55.822;37.330;2023-05-25T09:39:09;99479.50;;;22.79;47.54
72942;BME280;69665;55.822;37.330;2023-05-25T09:41:36;99479.44;;;22.69;47.10
72942;BME280;69665;55.822;37.330;2023-05-25T09:44:05;99480.59;;;22.76;47.38
72942;BME280;69665;55.822;37.330;2023-05-25T09:46:31;99495.28;;;22.72;48.32
72942;BME280;69665;55.822;37.330;2023-05-25T09:49:06;99465.59;;;22.64;47.69
72942;BME280;69665;55.822;37.330;2023-05-25T09:51:35;99480.66;;;22.86;47.06
72942;BME280;69665;55.822;37.330;2023-05-25T09:54:02;99478.63;;;22.88;46.88
72942;BME280;69665;55.822;37.330;2023-05-25T09:56:30;99480.06;;;22.82;47.10
72942;BME280;69665;55.822;37.330;2023-05-25T09:58:59;99476.63;;;22.71;47.04
72942;BME280;69665;55.822;37.330;2023-05-25T10:01:25;99483.38;;;22.55;46.59
72942;BME280;69665;55.822;37.330;2023-05-25T10:03:54;99473.69;;;22.24;47.19
72942;BME280;69665;55.822;37.330;2023-05-25T10:06:25;99490.50;;;22.26;47.68
72942;BME280;69665;55.822;37.330;2023-05-25T10:08:53;99480.59;;;22.17;48.13
72942;BME280;69665;55.822;37.330;2023-05-25T10:11:21;99479.28;;;22.11;48.01
72942;BME280;69665;55.822;37.330;2023-05-25T10:13:49;99468.06;;;21.96;47.92
72942;BME280;69665;55.822;37.330;2023-05-25T10:16:23;99475.47;;;22.04;49.29
72942;BME280;69665;55.822;37.330;2023-05-25T10:19:19;99486.94;;;22.16;49.38
72942;BME280;69665;55.822;37.330;2023-05-25T10:22:00;99464.16;;;22.00;48.30
72942;BME280;69665;55.822;37.330;2023-05-25T10:24:33;99474.13;;;21.98;48.98
72942;BME280;69665;55.822;37.330;2023-05-25T10:27:03;99482.66;;;22.04;49.03
72942;BME280;69665;55.822;37.330;2023-05-25T10:29:32;99483.81;;;22.11;49.30
72942;BME280;69665;55.822;37.330;2023-05-25T10:31:58;99480.69;;;22.06;49.34
72942;BME280;69665;55.822;37.330;2023-05-25T10:34:25;99479.13;;;22.03;49.75
72942;BME280;69665;55.822;37.330;2023-05-25T10:36:52;99480.13;;;22.12;50.01
72942;BME280;69665;55.822;37.330;2023-05-25T10:39:20;99461.84;;;21.96;48.71
72942;BME280;69665;55.822;37.330;2023-05-25T10:41:47;99490.44;;;22.07;50.30
72942;BME280;69665;55.822;37.330;2023-05-25T10:44:13;99486.22;;;22.14;49.59
72942;BME280;69665;55.822;37.330;2023-05-25T10:46:40;99484.22;;;22.06;50.43
72942;BME280;69665;55.822;37.330;2023-05-25T10:49:06;99468.91;;;21.97;50.39
72942;BME280;69665;55.822;37.330;2023-05-25T10:51:41;99477.94;;;21.96;51.39
72942;BME280;69665;55.822;37.330;2023-05-25T10:54:12;99469.13;;;21.84;50.94
72942;BME280;69665;55.822;37.330;2023-05-25T10:59:34;99469.41;;;21.81;51.19
72942;BME280;69665;55.822;37.330;2023-05-25T11:02:05;99454.44;;;21.79;51.32
72942;BME280;69665;55.822;37.330;2023-05-25T11:04:30;99467.16;;;21.86;51.14
72942;BME280;69665;55.822;37.330;2023-05-25T11:09:28;99464.38;;;21.67;51.75
72942;BME280;69665;55.822;37.330;2023-05-25T11:14:32;99447.94;;;21.51;52.16
72942;BME280;69665;55.822;37.330;2023-05-25T11:17:13;99463.88;;;21.52;52.79
72942;BME280;69665;55.822;37.330;2023-05-25T11:19:52;99463.94;;;21.41;53.13
72942;BME280;69665;55.822;37.330;2023-05-25T11:22:32;99457.63;;;21.42;53.81
72942;BME280;69665;55.822;37.330;2023-05-25T11:25:01;99446.56;;;21.36;51.87
72942;BME280;69665;55.822;37.330;2023-05-25T11:27:31;99449.56;;;21.42;52.88
72942;BME280;69665;55.822;37.330;2023-05-25T11:29:58;99441.72;;;21.50;52.25
72942;BME280;69665;55.822;37.330;2023-05-25T11:32:25;99423.13;;;21.28;51.38
72942;BME280;69665;55.822;37.330;2023-05-25T11:34:52;99430.19;;;21.29;51.87
72942;BME280;69665;55.822;37.330;2023-05-25T11:37:21;99443.16;;;21.33;52.52
72942;BME280;69665;55.822;37.330;2023-05-25T11:39:50;99443.63;;;21.39;52.39
72942;BME280;69665;55.822;37.330;2023-05-25T11:42:19;99438.09;;;21.61;52.99
72942;BME280;69665;55.822;37.330;2023-05-25T11:44:44;99418.22;;;21.63;52.49
72942;BME280;69665;55.822;37.330;2023-05-25T11:47:11;99418.47;;;21.81;50.58
72942;BME280;69665;55.822;37.330;2023-05-25T11:49:45;99430.84;;;22.03;51.28
72942;BME280;69665;55.822;37.330;2023-05-25T11:52:13;99428.03;;;22.05;51.44
72942;BME280;69665;55.822;37.330;2023-05-25T11:54:39;99406.72;;;22.03;50.92
72942;BME280;69665;55.822;37.330;2023-05-25T11:59:39;99432.06;;;22.29;51.38
72942;BME280;69665;55.822;37.330;2023-05-25T12:02:05;99425.28;;;22.35;52.06
72942;BME280;69665;55.822;37.330;2023-05-25T12:04:32;99421.78;;;22.34;51.99
72942;BME280;69665;55.822;37.330;2023-05-25T12:07:05;99423.88;;;22.41;52.74
72942;BME280;69665;55.822;37.330;2023-05-25T12:09:33;99422.44;;;22.37;50.13
72942;BME280;69665;55.822;37.330;2023-05-25T12:12:02;99415.81;;;22.31;49.88
72942;BME280;69665;55.822;37.330;2023-05-25T12:14:29;99421.84;;;22.14;51.99
72942;BME280;69665;55.822;37.330;2023-05-25T12:16:55;99415.47;;;22.05;50.29
72942;BME280;69665;55.822;37.330;2023-05-25T12:19:22;99424.16;;;21.97;49.49
72942;BME280;69665;55.822;37.330;2023-05-25T12:21:48;99419.34;;;21.91;49.63
72942;BME280;69665;55.822;37.330;2023-05-25T12:24:16;99427.25;;;21.93;50.17
72942;BME280;69665;55.822;37.330;2023-05-25T12:26:49;99406.31;;;22.08;49.41
72942;BME280;69665;55.822;37.330;2023-05-25T12:29:15;99404.28;;;22.00;49.77
72942;BME280;69665;55.822;37.330;2023-05-25T12:31:41;99412.53;;;22.18;50.79
72942;BME280;69665;55.822;37.330;2023-05-25T12:34:14;99422.19;;;22.30;49.76
72942;BME280;69665;55.822;37.330;2023-05-25T12:39:15;99402.84;;;22.46;49.54
72942;BME280;69665;55.822;37.330;2023-05-25T12:41:45;99402.97;;;22.44;49.72
72942;BME280;69665;55.822;37.330;2023-05-25T12:44:29;99385.03;;;22.35;50.49
72942;BME280;69665;55.822;37.330;2023-05-25T12:47:20;99409.06;;;22.46;50.25
72942;BME280;69665;55.822;37.330;2023-05-25T12:57:45;99401.28;;;22.43;47.98
72942;BME280;69665;55.822;37.330;2023-05-25T13:00:12;99404.38;;;22.29;48.36
72942;BME280;69665;55.822;37.330;2023-05-25T13:02:43;99390.69;;;22.42;49.37
72942;BME280;69665;55.822;37.330;2023-05-25T13:05:36;99414.03;;;22.70;50.24
72942;BME280;69665;55.822;37.330;2023-05-25T13:08:03;99406.84;;;22.90;48.09
72942;BME280;69665;55.822;37.330;2023-05-25T13:10:30;99407.66;;;23.19;48.27
72942;BME280;69665;55.822;37.330;2023-05-25T13:13:00;99423.75;;;23.39;47.71
72942;BME280;69665;55.822;37.330;2023-05-25T13:15:26;99416.22;;;23.61;47.76
72942;BME280;69665;55.822;37.330;2023-05-25T13:17:53;99392.31;;;23.58;47.33
72942;BME280;69665;55.822;37.330;2023-05-25T13:20:21;99424.94;;;23.73;47.47
72942;BME280;69665;55.822;37.330;2023-05-25T13:22:49;99421.66;;;23.79;47.08
72942;BME280;69665;55.822;37.330;2023-05-25T13:25:15;99422.75;;;23.59;46.80